»·PEaware :: ASA751 KPDX-KSEA

ASA751 :: KPDX-KSEA

FLIGHT INFORMATION

Flight Status: Arrived
Operator:
Alaska Airlines
More flights by this operator :: More flights under this callsign
Pilot: Ben L. (6391)
Aircraft: BOEING 737-800
(B738)
More flights by this aircraft type
Origin: KPDX Portland Intl
United States
Destination: KSEA Seattle-Tacoma Intl
United States
More flights between these airports :: More routes between these airports
Route: COUGA KRIEG HAWKZ6
File this flight plan on PilotEdge
Remarks:
Altitude:
(Current/Filed)
22,000ft
Speed:
(Current/Filed)
420kts
Departed: 06-Sep-18 08:27 AM
Arrived: 06-Sep-18 09:00 AM
Distance/Time
Traveled:
112nm/0:33
Distance/Time
To Go:
Arrived

Flight Plot

Page will automatically refresh every two minutes.

Flight plan parsing failed; only flown route is shown


Map Options




Map Legend


Flown Route
Filed Route
Departure Airport
Arrival Airport
Navaid (VOR, NDB)
Fix

Horizontal Profiles

Position Reports

Time Latitude Longitude Heading Altitude Ground
Speed
06-Sep-18 07:49 45.588628 -122.597004 28 30ft 0kts
06-Sep-18 07:50 45.588628 -122.597004 28 30ft 0kts
06-Sep-18 07:51 45.588628 -122.597004 28 30ft 0kts
06-Sep-18 07:52 45.588628 -122.597004 28 30ft 0kts
06-Sep-18 07:53 45.588628 -122.597004 28 30ft 0kts
06-Sep-18 07:54 45.588628 -122.597004 28 30ft 0kts
06-Sep-18 07:55 45.588628 -122.597004 28 30ft 0kts
06-Sep-18 07:56 45.588628 -122.597004 28 30ft 0kts
06-Sep-18 07:57 45.588628 -122.597004 28 30ft 0kts
06-Sep-18 07:58 45.588628 -122.597004 28 30ft 0kts
06-Sep-18 07:59 45.588628 -122.597004 28 30ft 0kts
06-Sep-18 08:00 45.588628 -122.597004 28 30ft 0kts
06-Sep-18 08:01 45.588628 -122.597004 28 30ft 0kts
06-Sep-18 08:02 45.588628 -122.597004 28 30ft 0kts
06-Sep-18 08:03 45.588628 -122.597004 28 30ft 0kts
06-Sep-18 08:04 45.588628 -122.597004 28 30ft 0kts
06-Sep-18 08:05 45.588628 -122.597004 28 30ft 0kts
06-Sep-18 08:06 45.588628 -122.597004 28 30ft 0kts
06-Sep-18 08:07 45.588628 -122.597004 28 30ft 0kts
06-Sep-18 08:08 45.588628 -122.597004 28 30ft 0kts
06-Sep-18 08:09 45.588628 -122.597004 28 30ft 0kts
06-Sep-18 08:10 45.588628 -122.597004 28 30ft 0kts
06-Sep-18 08:11 45.588628 -122.597004 28 30ft 0kts
06-Sep-18 08:12 45.588628 -122.597004 28 30ft 0kts
06-Sep-18 08:13 45.588628 -122.597004 28 30ft 0kts
06-Sep-18 08:14 45.588628 -122.597004 28 30ft 0kts
06-Sep-18 08:15 45.588628 -122.597004 28 30ft 0kts
06-Sep-18 08:16 45.588627 -122.597004 28 31ft 0kts
06-Sep-18 08:17 45.588131 -122.597400 28 31ft 2kts
06-Sep-18 08:18 45.587726 -122.597463 305 31ft 0kts
06-Sep-18 08:19 45.588066 -122.597388 29 31ft 0kts
06-Sep-18 08:20 45.588066 -122.597388 29 31ft 0kts
06-Sep-18 08:21 45.588066 -122.597388 29 31ft 0kts
06-Sep-18 08:22 45.588159 -122.597307 31 30ft 0kts
06-Sep-18 08:23 45.586471 -122.594090 124 30ft 15kts
06-Sep-18 08:24 45.583816 -122.589311 123 31ft 15kts
06-Sep-18 08:25 45.581834 -122.584142 122 31ft 14kts
06-Sep-18 08:26 45.581551 -122.583731 154 31ft 0kts
06-Sep-18 08:27 45.581551 -122.583731 154 31ft 0kts
06-Sep-18 08:28 45.580825 -122.584477 280 31ft 13kts
06-Sep-18 08:29 45.590673 -122.610174 298 124ft 169kts
06-Sep-18 08:30 45.611539 -122.667800 297 2519ft 167kts
06-Sep-18 08:31 45.653711 -122.677756 29 4125ft 198kts
06-Sep-18 08:32 45.711593 -122.677238 356 5656ft 245kts
06-Sep-18 08:33 45.785543 -122.681388 356 7202ft 278kts
06-Sep-18 08:37 46.131350 -122.683990 359 15001ft 382kts
06-Sep-18 08:38 46.221592 -122.700696 350 15009ft 381kts
06-Sep-18 08:39 46.325917 -122.721583 354 16270ft 390kts
06-Sep-18 08:40 46.435332 -122.726255 357 18547ft 405kts
06-Sep-18 08:41 46.549250 -122.730345 356 20645ft 420kts
06-Sep-18 08:42 46.664983 -122.734529 356 22119ft 434kts
06-Sep-18 08:43 46.782856 -122.723282 19 22129ft 425kts
06-Sep-18 08:44 46.873912 -122.633977 37 20358ft 384kts
06-Sep-18 08:45 46.959112 -122.550690 16 17668ft 365kts
06-Sep-18 08:46 47.053161 -122.509981 14 15119ft 347kts
06-Sep-18 08:47 47.141878 -122.485936 4 12730ft 332kts
06-Sep-18 08:48 47.229801 -122.472317 4 10438ft 316kts
06-Sep-18 08:49 47.311882 -122.460340 5 9105ft 286kts
06-Sep-18 08:50 47.385910 -122.453271 359 9140ft 241kts
06-Sep-18 08:51 47.449885 -122.453924 358 7148ft 228kts
06-Sep-18 08:52 47.508921 -122.454920 357 5990ft 217kts
06-Sep-18 08:53 47.568717 -122.456259 357 5987ft 217kts
06-Sep-18 08:54 47.628614 -122.456244 359 5926ft 210kts
06-Sep-18 08:55 47.683407 -122.443586 56 4094ft 213kts
06-Sep-18 08:56 47.677680 -122.366784 131 4003ft 192kts
06-Sep-18 08:57 47.638240 -122.320943 148 3963ft 177kts
06-Sep-18 08:58 47.591202 -122.300882 180 2565ft 175kts
06-Sep-18 08:59 47.550694 -122.302689 183 2049ft 151kts
06-Sep-18 09:00 47.508570 -122.306885 181 1210ft 145kts
06-Sep-18 09:01 47.467458 -122.307601 180 580ft 146kts
06-Sep-18 09:02 47.446034 -122.307370 114 441ft 4kts
06-Sep-18 09:03 47.447889 -122.306311 356 441ft 13kts
06-Sep-18 09:04 47.449702 -122.304416 146 441ft 6kts

Navigation Log

Ident Type
Flight plan parsing failed, navigation log unavailable